sensor_id;sensor_type;location;lat;lon;timestamp;pressure;altitude;pressure_sealevel;temperature
45034;BMP280;30771;47.988;-4.186;2022-07-22T06:00:54;100831.81;;;15.38
45034;BMP280;30771;47.988;-4.186;2022-07-22T06:03:19;100841.34;;;15.46
45034;BMP280;30771;47.988;-4.186;2022-07-22T06:05:45;100835.56;;;15.49
45034;BMP280;30771;47.988;-4.186;2022-07-22T06:08:10;100846.91;;;15.56
45034;BMP280;30771;47.988;-4.186;2022-07-22T06:10:35;100857.44;;;15.63
45034;BMP280;30771;47.988;-4.186;2022-07-22T06:13:01;100857.81;;;15.66
45034;BMP280;30771;47.988;-4.186;2022-07-22T06:15:26;100855.47;;;15.70
45034;BMP280;30771;47.988;-4.186;2022-07-22T06:17:51;100853.78;;;15.75
45034;BMP280;30771;47.988;-4.186;2022-07-22T06:20:17;100854.28;;;15.84
45034;BMP280;30771;47.988;-4.186;2022-07-22T06:22:42;100859.25;;;15.92
45034;BMP280;30771;47.988;-4.186;2022-07-22T06:25:08;100858.13;;;15.99
45034;BMP280;30771;47.988;-4.186;2022-07-22T06:27:33;100851.22;;;16.10
45034;BMP280;30771;47.988;-4.186;2022-07-22T06:29:58;100864.75;;;16.20
45034;BMP280;30771;47.988;-4.186;2022-07-22T06:32:24;100859.09;;;16.28
45034;BMP280;30771;47.988;-4.186;2022-07-22T06:34:49;100861.41;;;16.36
45034;BMP280;30771;47.988;-4.186;2022-07-22T06:37:14;100863.41;;;16.40
45034;BMP280;30771;47.988;-4.186;2022-07-22T06:39:39;100859.69;;;16.41
45034;BMP280;30771;47.988;-4.186;2022-07-22T06:42:05;100859.94;;;16.40
45034;BMP280;30771;47.988;-4.186;2022-07-22T06:44:30;100863.03;;;16.48
45034;BMP280;30771;47.988;-4.186;2022-07-22T06:46:55;100862.81;;;16.61
45034;BMP280;30771;47.988;-4.186;2022-07-22T06:49:21;100857.72;;;16.71
45034;BMP280;30771;47.988;-4.186;2022-07-22T06:51:46;100863.03;;;16.83
45034;BMP280;30771;47.988;-4.186;2022-07-22T06:54:11;100872.81;;;16.94
45034;BMP280;30771;47.988;-4.186;2022-07-22T06:56:36;100870.84;;;17.01
45034;BMP280;30771;47.988;-4.186;2022-07-22T06:59:02;100869.19;;;17.12
45034;BMP280;30771;47.988;-4.186;2022-07-22T07:01:27;100878.19;;;17.22
45034;BMP280;30771;47.988;-4.186;2022-07-22T07:03:52;100876.28;;;17.34
45034;BMP280;30771;47.988;-4.186;2022-07-22T07:06:18;100882.28;;;17.41
45034;BMP280;30771;47.988;-4.186;2022-07-22T07:08:43;100887.00;;;17.51
45034;BMP280;30771;47.988;-4.186;2022-07-22T07:11:08;100909.41;;;17.66
45034;BMP280;30771;47.988;-4.186;2022-07-22T07:13:33;100899.50;;;17.78
45034;BMP280;30771;47.988;-4.186;2022-07-22T07:15:59;100902.81;;;17.85
45034;BMP280;30771;47.988;-4.186;2022-07-22T07:18:24;100911.38;;;17.87
45034;BMP280;30771;47.988;-4.186;2022-07-22T07:20:50;100916.56;;;17.94
45034;BMP280;30771;47.988;-4.186;2022-07-22T07:23:15;100919.06;;;18.00
45034;BMP280;30771;47.988;-4.186;2022-07-22T07:25:41;100915.84;;;18.15
45034;BMP280;30771;47.988;-4.186;2022-07-22T07:28:06;100916.50;;;18.22
45034;BMP280;30771;47.988;-4.186;2022-07-22T07:30:31;100916.66;;;18.32
45034;BMP280;30771;47.988;-4.186;2022-07-22T07:32:57;100922.09;;;18.37
45034;BMP280;30771;47.988;-4.186;2022-07-22T07:35:22;100926.50;;;18.48
45034;BMP280;30771;47.988;-4.186;2022-07-22T07:37:47;100922.63;;;18.56
45034;BMP280;30771;47.988;-4.186;2022-07-22T07:40:13;100911.53;;;18.64
45034;BMP280;30771;47.988;-4.186;2022-07-22T07:42:39;100928.16;;;18.71
45034;BMP280;30771;47.988;-4.186;2022-07-22T07:45:04;100913.72;;;18.67
45034;BMP280;30771;47.988;-4.186;2022-07-22T07:47:30;100911.72;;;18.79
45034;BMP280;30771;47.988;-4.186;2022-07-22T07:49:55;100918.09;;;18.94
45034;BMP280;30771;47.988;-4.186;2022-07-22T07:52:20;100923.78;;;19.03
45034;BMP280;30771;47.988;-4.186;2022-07-22T07:54:46;100914.06;;;19.13
45034;BMP280;30771;47.988;-4.186;2022-07-22T07:57:11;100915.22;;;19.22
45034;BMP280;30771;47.988;-4.186;2022-07-22T07:59:40;100909.47;;;19.30
45034;BMP280;30771;47.988;-4.186;2022-07-22T08:02:05;100915.97;;;19.39
45034;BMP280;30771;47.988;-4.186;2022-07-22T08:04:31;100909.94;;;19.54
45034;BMP280;30771;47.988;-4.186;2022-07-22T08:06:57;100898.56;;;19.63
45034;BMP280;30771;47.988;-4.186;2022-07-22T08:09:22;100908.66;;;19.56
45034;BMP280;30771;47.988;-4.186;2022-07-22T08:11:47;100897.72;;;19.58
45034;BMP280;30771;47.988;-4.186;2022-07-22T08:14:13;100891.72;;;19.72
45034;BMP280;30771;47.988;-4.186;2022-07-22T08:16:38;100887.56;;;19.86
45034;BMP280;30771;47.988;-4.186;2022-07-22T08:19:03;100881.78;;;20.00
45034;BMP280;30771;47.988;-4.186;2022-07-22T08:21:28;100884.84;;;20.18
45034;BMP280;30771;47.988;-4.186;2022-07-22T08:23:54;100884.19;;;20.38
45034;BMP280;30771;47.988;-4.186;2022-07-22T08:26:19;100890.34;;;20.43
45034;BMP280;30771;47.988;-4.186;2022-07-22T08:28:44;100903.09;;;20.26
45034;BMP280;30771;47.988;-4.186;2022-07-22T08:31:10;100898.50;;;20.22
45034;BMP280;30771;47.988;-4.186;2022-07-22T08:33:35;100886.69;;;20.18
45034;BMP280;30771;47.988;-4.186;2022-07-22T08:36:01;100879.78;;;20.22
45034;BMP280;30771;47.988;-4.186;2022-07-22T08:38:26;100882.00;;;20.30
45034;BMP280;30771;47.988;-4.186;2022-07-22T08:40:54;100876.50;;;20.51
45034;BMP280;30771;47.988;-4.186;2022-07-22T08:43:19;100885.41;;;20.72
45034;BMP280;30771;47.988;-4.186;2022-07-22T08:45:45;100903.31;;;20.71
45034;BMP280;30771;47.988;-4.186;2022-07-22T08:48:10;100892.63;;;20.66
45034;BMP280;30771;47.988;-4.186;2022-07-22T08:50:35;100888.34;;;20.65
45034;BMP280;30771;47.988;-4.186;2022-07-22T08:53:01;100889.44;;;20.74
45034;BMP280;30771;47.988;-4.186;2022-07-22T08:55:26;100901.28;;;20.78
45034;BMP280;30771;47.988;-4.186;2022-07-22T08:57:51;100895.34;;;20.81
45034;BMP280;30771;47.988;-4.186;2022-07-22T09:00:19;100898.59;;;20.88
45034;BMP280;30771;47.988;-4.186;2022-07-22T09:02:45;100898.88;;;20.87
45034;BMP280;30771;47.988;-4.186;2022-07-22T09:05:12;100903.94;;;20.88
45034;BMP280;30771;47.988;-4.186;2022-07-22T09:07:39;100902.94;;;20.94
45034;BMP280;30771;47.988;-4.186;2022-07-22T09:10:07;100902.16;;;21.09
45034;BMP280;30771;47.988;-4.186;2022-07-22T09:12:32;100885.59;;;21.22
45034;BMP280;30771;47.988;-4.186;2022-07-22T09:14:59;100891.25;;;21.35
45034;BMP280;30771;47.988;-4.186;2022-07-22T09:17:27;100895.00;;;21.29
45034;BMP280;30771;47.988;-4.186;2022-07-22T09:19:54;100888.00;;;21.28
45034;BMP280;30771;47.988;-4.186;2022-07-22T09:24:56;100871.72;;;21.55
45034;BMP280;30771;47.988;-4.186;2022-07-22T09:27:23;100876.25;;;21.69
45034;BMP280;30771;47.988;-4.186;2022-07-22T09:29:49;100890.75;;;21.68
45034;BMP280;30771;47.988;-4.186;2022-07-22T09:32:15;100895.00;;;21.59
45034;BMP280;30771;47.988;-4.186;2022-07-22T09:34:40;100888.06;;;21.53
45034;BMP280;30771;47.988;-4.186;2022-07-22T09:37:05;100895.00;;;21.59
45034;BMP280;30771;47.988;-4.186;2022-07-22T09:39:32;100903.88;;;21.65
45034;BMP280;30771;47.988;-4.186;2022-07-22T09:42:02;100907.38;;;21.65
45034;BMP280;30771;47.988;-4.186;2022-07-22T09:44:28;100899.31;;;21.60
45034;BMP280;30771;47.988;-4.186;2022-07-22T09:46:53;100908.41;;;21.64
45034;BMP280;30771;47.988;-4.186;2022-07-22T09:49:36;100892.63;;;21.73
45034;BMP280;30771;47.988;-4.186;2022-07-22T09:52:02;100889.13;;;21.83
45034;BMP280;30771;47.988;-4.186;2022-07-22T09:54:31;100910.81;;;21.91
45034;BMP280;30771;47.988;-4.186;2022-07-22T09:56:56;100896.88;;;21.84
45034;BMP280;30771;47.988;-4.186;2022-07-22T09:59:22;100899.34;;;21.86
45034;BMP280;30771;47.988;-4.186;2022-07-22T10:01:50;100885.63;;;22.02
45034;BMP280;30771;47.988;-4.186;2022-07-22T10:04:15;100899.56;;;22.09
45034;BMP280;30771;47.988;-4.186;2022-07-22T10:06:44;100890.97;;;22.12
45034;BMP280;30771;47.988;-4.186;2022-07-22T10:09:11;100893.13;;;22.10
45034;BMP280;30771;47.988;-4.186;2022-07-22T10:11:36;100888.31;;;22.12
45034;BMP280;30771;47.988;-4.186;2022-07-22T10:14:02;100892.03;;;22.11
45034;BMP280;30771;47.988;-4.186;2022-07-22T10:16:28;100899.25;;;22.26
45034;BMP280;30771;47.988;-4.186;2022-07-22T10:18:54;100897.38;;;22.26
45034;BMP280;30771;47.988;-4.186;2022-07-22T10:21:31;100893.88;;;22.26
45034;BMP280;30771;47.988;-4.186;2022-07-22T10:24:16;100889.31;;;22.26
45034;BMP280;30771;47.988;-4.186;2022-07-22T10:26:55;100893.56;;;22.37
45034;BMP280;30771;47.988;-4.186;2022-07-22T10:29:24;100890.84;;;22.52
45034;BMP280;30771;47.988;-4.186;2022-07-22T10:31:50;100893.56;;;22.47
45034;BMP280;30771;47.988;-4.186;2022-07-22T10:34:15;100885.50;;;22.47
45034;BMP280;30771;47.988;-4.186;2022-07-22T10:36:41;100892.47;;;22.58
45034;BMP280;30771;47.988;-4.186;2022-07-22T10:39:13;100899.47;;;22.49
45034;BMP280;30771;47.988;-4.186;2022-07-22T10:41:44;100905.88;;;22.58
45034;BMP280;30771;47.988;-4.186;2022-07-22T10:44:10;100897.84;;;22.53
45034;BMP280;30771;47.988;-4.186;2022-07-22T10:46:53;100897.25;;;22.66
45034;BMP280;30771;47.988;-4.186;2022-07-22T10:49:20;100907.16;;;22.81
45034;BMP280;30771;47.988;-4.186;2022-07-22T10:54:32;100897.47;;;22.80
45034;BMP280;30771;47.988;-4.186;2022-07-22T10:56:59;100909.50;;;22.87
45034;BMP280;30771;47.988;-4.186;2022-07-22T10:59:24;100901.19;;;22.84
45034;BMP280;30771;47.988;-4.186;2022-07-22T11:01:51;100900.72;;;22.67
45034;BMP280;30771;47.988;-4.186;2022-07-22T11:04:20;100908.56;;;22.58
45034;BMP280;30771;47.988;-4.186;2022-07-22T11:06:47;100908.50;;;22.73
45034;BMP280;30771;47.988;-4.186;2022-07-22T11:09:13;100906.34;;;22.75
45034;BMP280;30771;47.988;-4.186;2022-07-22T11:11:43;100908.53;;;22.68
45034;BMP280;30771;47.988;-4.186;2022-07-22T11:14:30;100910.34;;;22.78
45034;BMP280;30771;47.988;-4.186;2022-07-22T11:17:06;100930.47;;;22.85
45034;BMP280;30771;47.988;-4.186;2022-07-22T11:19:32;100902.78;;;22.85
45034;BMP280;30771;47.988;-4.186;2022-07-22T11:21:59;100922.44;;;22.75
45034;BMP280;30771;47.988;-4.186;2022-07-22T11:24:25;100922.78;;;22.59
45034;BMP280;30771;47.988;-4.186;2022-07-22T11:26:52;100934.09;;;22.46
45034;BMP280;30771;47.988;-4.186;2022-07-22T11:31:48;100928.94;;;22.59
45034;BMP280;30771;47.988;-4.186;2022-07-22T11:34:15;100926.25;;;22.59
45034;BMP280;30771;47.988;-4.186;2022-07-22T11:36:42;100924.88;;;22.72
45034;BMP280;30771;47.988;-4.186;2022-07-22T11:39:09;100930.25;;;22.72
45034;BMP280;30771;47.988;-4.186;2022-07-22T11:41:35;100932.94;;;22.72
45034;BMP280;30771;47.988;-4.186;2022-07-22T11:44:01;100929.91;;;22.88
45034;BMP280;30771;47.988;-4.186;2022-07-22T11:46:28;100929.31;;;22.96
45034;BMP280;30771;47.988;-4.186;2022-07-22T11:48:59;100944.56;;;23.11
45034;BMP280;30771;47.988;-4.186;2022-07-22T11:51:29;100954.78;;;23.14
45034;BMP280;30771;47.988;-4.186;2022-07-22T11:53:54;100943.00;;;23.00
45034;BMP280;30771;47.988;-4.186;2022-07-22T11:56:20;100945.75;;;22.85
45034;BMP280;30771;47.988;-4.186;2022-07-22T11:58:46;100948.50;;;22.70
45034;BMP280;30771;47.988;-4.186;2022-07-22T12:01:14;100940.75;;;22.68
45034;BMP280;30771;47.988;-4.186;2022-07-22T12:03:44;100946.13;;;22.63
45034;BMP280;30771;47.988;-4.186;2022-07-22T12:06:12;100942.63;;;22.68
45034;BMP280;30771;47.988;-4.186;2022-07-22T12:08:43;100961.69;;;22.66
45034;BMP280;30771;47.988;-4.186;2022-07-22T12:11:11;100957.91;;;22.62
45034;BMP280;30771;47.988;-4.186;2022-07-22T12:13:41;100927.00;;;22.70
45034;BMP280;30771;47.988;-4.186;2022-07-22T12:18:51;100950.41;;;22.59
45034;BMP280;30771;47.988;-4.186;2022-07-22T12:21:16;100957.13;;;22.57
45034;BMP280;30771;47.988;-4.186;2022-07-22T12:23:49;100966.59;;;22.49
45034;BMP280;30771;47.988;-4.186;2022-07-22T12:26:14;100947.00;;;22.39
45034;BMP280;30771;47.988;-4.186;2022-07-22T12:28:39;100960.41;;;22.54
45034;BMP280;30771;47.988;-4.186;2022-07-22T12:31:05;100947.47;;;22.56
45034;BMP280;30771;47.988;-4.186;2022-07-22T12:33:30;100956.03;;;22.63
45034;BMP280;30771;47.988;-4.186;2022-07-22T12:36:04;100959.00;;;22.66
45034;BMP280;30771;47.988;-4.186;2022-07-22T12:38:30;100959.78;;;22.67
45034;BMP280;30771;47.988;-4.186;2022-07-22T12:40:56;100954.97;;;22.69
45034;BMP280;30771;47.988;-4.186;2022-07-22T12:43:25;100952.53;;;22.67
45034;BMP280;30771;47.988;-4.186;2022-07-22T12:45:51;100958.22;;;22.61
45034;BMP280;30771;47.988;-4.186;2022-07-22T12:48:16;100955.78;;;22.69
45034;BMP280;30771;47.988;-4.186;2022-07-22T12:50:52;100961.09;;;22.84
45034;BMP280;30771;47.988;-4.186;2022-07-22T12:53:18;100975.38;;;22.65
45034;BMP280;30771;47.988;-4.186;2022-07-22T12:55:56;100956.59;;;22.60
45034;BMP280;30771;47.988;-4.186;2022-07-22T12:58:29;100966.00;;;22.52
45034;BMP280;30771;47.988;-4.186;2022-07-22T13:00:57;100982.94;;;22.58
45034;BMP280;30771;47.988;-4.186;2022-07-22T13:03:24;100960.63;;;22.52
45034;BMP280;30771;47.988;-4.186;2022-07-22T13:05:51;100970.84;;;22.60
45034;BMP280;30771;47.988;-4.186;2022-07-22T13:08:16;100968.69;;;22.57
45034;BMP280;30771;47.988;-4.186;2022-07-22T13:10:42;100967.91;;;22.52
45034;BMP280;30771;47.988;-4.186;2022-07-22T13:13:07;100965.47;;;22.55
45034;BMP280;30771;47.988;-4.186;2022-07-22T13:15:32;100968.97;;;22.61
45034;BMP280;30771;47.988;-4.186;2022-07-22T13:17:58;100973.78;;;22.64
45034;BMP280;30771;47.988;-4.186;2022-07-22T13:20:23;100978.88;;;22.60
45034;BMP280;30771;47.988;-4.186;2022-07-22T13:22:48;100992.00;;;22.67
45034;BMP280;30771;47.988;-4.186;2022-07-22T13:25:14;100984.53;;;22.59
45034;BMP280;30771;47.988;-4.186;2022-07-22T13:27:39;100979.16;;;22.64
45034;BMP280;30771;47.988;-4.186;2022-07-22T13:30:05;100986.94;;;22.60
45034;BMP280;30771;47.988;-4.186;2022-07-22T13:32:31;100965.47;;;22.60
45034;BMP280;30771;47.988;-4.186;2022-07-22T13:34:57;100974.56;;;22.69
45034;BMP280;30771;47.988;-4.186;2022-07-22T13:37:24;100979.41;;;22.67
45034;BMP280;30771;47.988;-4.186;2022-07-22T13:39:49;100973.47;;;22.75
45034;BMP280;30771;47.988;-4.186;2022-07-22T13:42:16;100971.34;;;22.67
45034;BMP280;30771;47.988;-4.186;2022-07-22T13:44:41;101007.06;;;22.73
45034;BMP280;30771;47.988;-4.186;2022-07-22T13:47:06;100964.13;;;22.53
45034;BMP280;30771;47.988;-4.186;2022-07-22T13:49:32;100971.09;;;22.69
45034;BMP280;30771;47.988;-4.186;2022-07-22T13:51:58;100963.00;;;22.74
45034;BMP280;30771;47.988;-4.186;2022-07-22T13:54:23;100964.00;;;22.93
45034;BMP280;30771;47.988;-4.186;2022-07-22T13:56:48;100968.03;;;22.95
45034;BMP280;30771;47.988;-4.186;2022-07-22T13:59:14;100972.09;;;22.88
45034;BMP280;30771;47.988;-4.186;2022-07-22T14:01:40;100956.75;;;22.93
45034;BMP280;30771;47.988;-4.186;2022-07-22T14:04:05;100971.78;;;22.94
45034;BMP280;30771;47.988;-4.186;2022-07-22T14:06:30;100959.72;;;22.92
45034;BMP280;30771;47.988;-4.186;2022-07-22T14:08:56;100958.63;;;22.98
45034;BMP280;30771;47.988;-4.186;2022-07-22T14:11:21;100982.00;;;22.97
45034;BMP280;30771;47.988;-4.186;2022-07-22T14:13:46;100985.22;;;22.94
45034;BMP280;30771;47.988;-4.186;2022-07-22T14:16:12;100969.94;;;22.85
45034;BMP280;30771;47.988;-4.186;2022-07-22T14:18:37;100969.47;;;22.73
45034;BMP280;30771;47.988;-4.186;2022-07-22T14:21:02;100965.09;;;22.82
45034;BMP280;30771;47.988;-4.186;2022-07-22T14:23:28;100953.81;;;22.90
45034;BMP280;30771;47.988;-4.186;2022-07-22T14:25:53;100964.50;;;23.05
45034;BMP280;30771;47.988;-4.186;2022-07-22T14:28:18;100949.94;;;23.11
45034;BMP280;30771;47.988;-4.186;2022-07-22T14:30:44;100957.97;;;23.11
45034;BMP280;30771;47.988;-4.186;2022-07-22T14:33:09;100972.00;;;23.08
45034;BMP280;30771;47.988;-4.186;2022-07-22T14:35:34;100952.16;;;22.99
45034;BMP280;30771;47.988;-4.186;2022-07-22T14:38:00;100959.38;;;23.03
45034;BMP280;30771;47.988;-4.186;2022-07-22T14:40:25;100952.94;;;23.04
45034;BMP280;30771;47.988;-4.186;2022-07-22T14:42:50;100957.81;;;22.97
45034;BMP280;30771;47.988;-4.186;2022-07-22T14:45:16;100944.75;;;22.81
45034;BMP280;30771;47.988;-4.186;2022-07-22T14:47:41;100937.38;;;23.01
45034;BMP280;30771;47.988;-4.186;2022-07-22T14:50:07;100963.13;;;23.07
45034;BMP280;30771;47.988;-4.186;2022-07-22T14:52:32;100976.31;;;23.04
45034;BMP280;30771;47.988;-4.186;2022-07-22T14:54:58;100955.63;;;22.99
45034;BMP280;30771;47.988;-4.186;2022-07-22T14:57:23;100961.72;;;23.20
45034;BMP280;30771;47.988;-4.186;2022-07-22T14:59:50;100963.94;;;23.13
45034;BMP280;30771;47.988;-4.186;2022-07-22T15:02:15;100975.28;;;22.95
45034;BMP280;30771;47.988;-4.186;2022-07-22T15:04:40;100980.63;;;23.00
45034;BMP280;30771;47.988;-4.186;2022-07-22T15:07:06;100964.22;;;23.01
45034;BMP280;30771;47.988;-4.186;2022-07-22T15:09:31;101001.59;;;22.98
45034;BMP280;30771;47.988;-4.186;2022-07-22T15:11:56;100975.88;;;22.77
45034;BMP280;30771;47.988;-4.186;2022-07-22T15:14:23;100993.31;;;22.79
45034;BMP280;30771;47.988;-4.186;2022-07-22T15:16:49;100999.22;;;22.81
45034;BMP280;30771;47.988;-4.186;2022-07-22T15:19:15;101001.34;;;22.94
45034;BMP280;30771;47.988;-4.186;2022-07-22T15:21:40;101002.94;;;23.00
45034;BMP280;30771;47.988;-4.186;2022-07-22T15:24:06;100998.34;;;23.06
45034;BMP280;30771;47.988;-4.186;2022-07-22T15:26:33;101008.03;;;23.02
45034;BMP280;30771;47.988;-4.186;2022-07-22T15:28:58;100998.09;;;23.02
45034;BMP280;30771;47.988;-4.186;2022-07-22T15:31:25;100996.25;;;22.93
45034;BMP280;30771;47.988;-4.186;2022-07-22T15:33:50;100987.09;;;22.99
45034;BMP280;30771;47.988;-4.186;2022-07-22T15:36:15;100991.38;;;23.00
45034;BMP280;30771;47.988;-4.186;2022-07-22T15:38:41;100983.53;;;23.03
45034;BMP280;30771;47.988;-4.186;2022-07-22T15:41:07;100995.59;;;23.16
45034;BMP280;30771;47.988;-4.186;2022-07-22T15:43:33;100986.50;;;23.07
45034;BMP280;30771;47.988;-4.186;2022-07-22T15:45:58;101001.03;;;23.01
45034;BMP280;30771;47.988;-4.186;2022-07-22T15:48:24;100993.53;;;23.03
45034;BMP280;30771;47.988;-4.186;2022-07-22T15:50:49;100981.72;;;22.89
45034;BMP280;30771;47.988;-4.186;2022-07-22T15:53:14;101006.47;;;22.91
45034;BMP280;30771;47.988;-4.186;2022-07-22T15:55:39;101001.31;;;22.99
45034;BMP280;30771;47.988;-4.186;2022-07-22T15:58:05;100996.22;;;23.03
45034;BMP280;30771;47.988;-4.186;2022-07-22T16:00:31;100993.72;;;23.16
45034;BMP280;30771;47.988;-4.186;2022-07-22T16:02:57;101002.34;;;23.13
45034;BMP280;30771;47.988;-4.186;2022-07-22T16:05:23;101020.41;;;23.03
45034;BMP280;30771;47.988;-4.186;2022-07-22T16:07:48;101013.22;;;22.83
45034;BMP280;30771;47.988;-4.186;2022-07-22T16:10:13;101011.88;;;22.76
45034;BMP280;30771;47.988;-4.186;2022-07-22T16:12:39;101010.25;;;22.75
45034;BMP280;30771;47.988;-4.186;2022-07-22T16:15:05;101011.88;;;22.76
45034;BMP280;30771;47.988;-4.186;2022-07-22T16:17:30;101001.69;;;22.73
45034;BMP280;30771;47.988;-4.186;2022-07-22T16:19:56;101001.91;;;22.81
45034;BMP280;30771;47.988;-4.186;2022-07-22T16:22:22;100995.66;;;23.06
45034;BMP280;30771;47.988;-4.186;2022-07-22T16:24:47;101001.47;;;23.18
45034;BMP280;30771;47.988;-4.186;2022-07-22T16:27:12;100998.28;;;23.16
45034;BMP280;30771;47.988;-4.186;2022-07-22T16:29:38;101017.13;;;23.06
45034;BMP280;30771;47.988;-4.186;2022-07-22T16:32:03;101014.25;;;22.87
45034;BMP280;30771;47.988;-4.186;2022-07-22T16:34:29;101019.66;;;22.67
45034;BMP280;30771;47.988;-4.186;2022-07-22T16:36:54;101021.56;;;22.62
45034;BMP280;30771;47.988;-4.186;2022-07-22T16:39:19;101017.81;;;22.53
45034;BMP280;30771;47.988;-4.186;2022-07-22T16:41:45;101007.91;;;22.53
45034;BMP280;30771;47.988;-4.186;2022-07-22T16:44:11;101001.47;;;22.49
45034;BMP280;30771;47.988;-4.186;2022-07-22T16:46:36;101002.53;;;22.48
45034;BMP280;30771;47.988;-4.186;2022-07-22T16:49:01;100987.25;;;22.49
45034;BMP280;30771;47.988;-4.186;2022-07-22T16:51:27;100986.94;;;22.60
45034;BMP280;30771;47.988;-4.186;2022-07-22T16:53:52;100985.03;;;22.76
45034;BMP280;30771;47.988;-4.186;2022-07-22T16:56:17;100987.13;;;22.84
45034;BMP280;30771;47.988;-4.186;2022-07-22T16:58:43;100985.53;;;22.78
45034;BMP280;30771;47.988;-4.186;2022-07-22T17:01:08;100987.97;;;22.74
45034;BMP280;30771;47.988;-4.186;2022-07-22T17:03:33;100991.50;;;22.65
45034;BMP280;30771;47.988;-4.186;2022-07-22T17:05:59;100986.63;;;22.72
45034;BMP280;30771;47.988;-4.186;2022-07-22T17:08:26;100994.97;;;22.80
45034;BMP280;30771;47.988;-4.186;2022-07-22T17:10:52;100997.69;;;22.65
45034;BMP280;30771;47.988;-4.186;2022-07-22T17:13:17;100992.34;;;22.45
45034;BMP280;30771;47.988;-4.186;2022-07-22T17:15:42;100989.09;;;22.48
45034;BMP280;30771;47.988;-4.186;2022-07-22T17:18:07;100990.97;;;22.53
45034;BMP280;30771;47.988;-4.186;2022-07-22T17:20:33;100981.34;;;22.47
45034;BMP280;30771;47.988;-4.186;2022-07-22T17:22:58;100988.81;;;22.65
45034;BMP280;30771;47.988;-4.186;2022-07-22T17:25:24;100986.91;;;22.75
45034;BMP280;30771;47.988;-4.186;2022-07-22T17:27:50;100997.09;;;22.78
45034;BMP280;30771;47.988;-4.186;2022-07-22T17:30:15;101002.50;;;22.63
45034;BMP280;30771;47.988;-4.186;2022-07-22T17:32:40;100993.13;;;22.66
45034;BMP280;30771;47.988;-4.186;2022-07-22T17:35:06;100993.91;;;22.71
45034;BMP280;30771;47.988;-4.186;2022-07-22T17:37:32;100999.00;;;22.73
45034;BMP280;30771;47.988;-4.186;2022-07-22T17:39:57;100997.66;;;22.75
45034;BMP280;30771;47.988;-4.186;2022-07-22T17:42:22;100992.50;;;22.79
45034;BMP280;30771;47.988;-4.186;2022-07-22T17:44:47;100988.78;;;22.70
45034;BMP280;30771;47.988;-4.186;2022-07-22T17:47:13;101003.84;;;22.76
45034;BMP280;30771;47.988;-4.186;2022-07-22T17:49:38;101002.50;;;22.68
45034;BMP280;30771;47.988;-4.186;2022-07-22T17:52:03;100991.97;;;22.87
45034;BMP280;30771;47.988;-4.186;2022-07-22T17:54:29;100994.47;;;23.27
45034;BMP280;30771;47.988;-4.186;2022-07-22T17:56:54;100985.88;;;23.30
45034;BMP280;30771;47.988;-4.186;2022-07-22T17:59:19;100993.19;;;23.63
45034;BMP280;30771;47.988;-4.186;2022-07-22T18:01:45;100994.28;;;24.24
45034;BMP280;30771;47.988;-4.186;2022-07-22T18:04:10;100982.25;;;25.24
45034;BMP280;30771;47.988;-4.186;2022-07-22T18:06:35;100973.84;;;26.22
45034;BMP280;30771;47.988;-4.186;2022-07-22T18:09:01;100962.09;;;27.16
45034;BMP280;30771;47.988;-4.186;2022-07-22T18:11:26;100979.25;;;27.78
45034;BMP280;30771;47.988;-4.186;2022-07-22T18:13:51;100987.50;;;28.03
45034;BMP280;30771;47.988;-4.186;2022-07-22T18:16:17;100990.00;;;28.39
45034;BMP280;30771;47.988;-4.186;2022-07-22T18:18:43;100990.47;;;28.32
45034;BMP280;30771;47.988;-4.186;2022-07-22T18:21:09;100997.50;;;28.50
45034;BMP280;30771;47.988;-4.186;2022-07-22T18:23:35;100994.34;;;28.65
45034;BMP280;30771;47.988;-4.186;2022-07-22T18:26:00;101006.47;;;28.59
45034;BMP280;30771;47.988;-4.186;2022-07-22T18:28:26;100999.03;;;28.65
45034;BMP280;30771;47.988;-4.186;2022-07-22T18:30:51;100996.97;;;28.79
45034;BMP280;30771;47.988;-4.186;2022-07-22T18:33:16;101010.16;;;28.80
45034;BMP280;30771;47.988;-4.186;2022-07-22T18:35:41;101015.13;;;28.95
45034;BMP280;30771;47.988;-4.186;2022-07-22T18:38:07;101017.22;;;28.90
45034;BMP280;30771;47.988;-4.186;2022-07-22T18:40:32;101019.28;;;28.84
45034;BMP280;30771;47.988;-4.186;2022-07-22T18:42:59;101014.66;;;28.76
45034;BMP280;30771;47.988;-4.186;2022-07-22T18:45:25;101022.63;;;28.90
45034;BMP280;30771;47.988;-4.186;2022-07-22T18:47:50;101022.63;;;29.07
45034;BMP280;30771;47.988;-4.186;2022-07-22T18:50:15;101010.22;;;29.23
45034;BMP280;30771;47.988;-4.186;2022-07-22T18:52:41;100996.72;;;29.52
45034;BMP280;30771;47.988;-4.186;2022-07-22T18:55:07;101011.94;;;29.36
45034;BMP280;30771;47.988;-4.186;2022-07-22T18:57:32;101009.22;;;29.44
45034;BMP280;30771;47.988;-4.186;2022-07-22T18:59:57;101011.13;;;29.52
45034;BMP280;30771;47.988;-4.186;2022-07-22T19:02:23;101020.38;;;29.51
45034;BMP280;30771;47.988;-4.186;2022-07-22T19:04:48;101021.69;;;29.20
45034;BMP280;30771;47.988;-4.186;2022-07-22T19:07:15;101035.09;;;28.91
45034;BMP280;30771;47.988;-4.186;2022-07-22T19:09:40;101027.81;;;28.44
45034;BMP280;30771;47.988;-4.186;2022-07-22T19:12:06;101051.41;;;28.13
45034;BMP280;30771;47.988;-4.186;2022-07-22T19:14:31;101053.94;;;27.57
45034;BMP280;30771;47.988;-4.186;2022-07-22T19:16:57;101057.81;;;26.39
45034;BMP280;30771;47.988;-4.186;2022-07-22T19:19:22;101084.16;;;25.27
45034;BMP280;30771;47.988;-4.186;2022-07-22T19:21:47;101088.97;;;23.98
45034;BMP280;30771;47.988;-4.186;2022-07-22T19:24:13;101081.91;;;23.09
45034;BMP280;30771;47.988;-4.186;2022-07-22T19:26:38;101083.09;;;22.43
45034;BMP280;30771;47.988;-4.186;2022-07-22T19:29:03;101090.81;;;22.00
45034;BMP280;30771;47.988;-4.186;2022-07-22T19:31:29;101079.16;;;21.49
45034;BMP280;30771;47.988;-4.186;2022-07-22T19:33:54;101082.47;;;21.14
45034;BMP280;30771;47.988;-4.186;2022-07-22T19:36:19;101088.78;;;20.98
45034;BMP280;30771;47.988;-4.186;2022-07-22T19:38:45;101070.88;;;20.62
45034;BMP280;30771;47.988;-4.186;2022-07-22T19:41:10;101081.13;;;20.44
45034;BMP280;30771;47.988;-4.186;2022-07-22T19:43:35;101092.56;;;20.34
45034;BMP280;30771;47.988;-4.186;2022-07-22T19:46:00;101081.19;;;20.17
45034;BMP280;30771;47.988;-4.186;2022-07-22T19:48:26;101079.38;;;20.01